Time;durP1;ratioP1;P1;durP2;ratioP2;P2;SDS_P1;SDS_P2;PMS_P1;PMS_P2;Temp;Humidity;BMP_temperature;BMP_pressure;BME280_temperature;BME280_humidity;BME280_pressure;Samples;Min_cycle;Max_cycle;Signal;HPM_P1;HPM_P2
2023/01/27 00:05:26;;;;;;;32.83;19.70;;;0.50;93.00;;;;;;4609119;30;20231;-82
2023/01/27 00:25:11;;;;;;;32.10;19.93;;;0.50;93.00;;;;;;4617287;30;20592;-83
2023/01/27 00:41:14;;;;;;;30.27;18.63;;;0.60;92.30;;;;;;4644440;30;20257;-82
2023/01/27 01:41:45;;;;;;;32.83;20.27;;;0.50;91.50;;;;;;4571822;30;20293;-81
2023/01/27 02:17:09;;;;;;;38.57;24.20;;;0.50;91.10;;;;;;4788918;29;20238;-82
2023/01/27 02:47:43;;;;;;;51.80;30.20;;;0.50;93.10;;;;;;4788931;29;20233;-80
2023/01/27 03:32:45;;;;;;;62.37;34.80;;;0.40;96.40;;;;;;4761638;29;20584;-82
2023/01/27 03:53:37;;;;;;;61.43;34.73;;;0.40;94.10;;;;;;4734655;29;20322;-81
2023/01/27 04:18:50;;;;;;;65.63;37.23;;;0.40;95.70;;;;;;4712178;29;20417;-81
2023/01/27 04:44:10;;;;;;;68.80;37.17;;;0.30;98.00;;;;;;4722352;29;20346;-84
2023/01/27 05:09:09;;;;;;;67.63;36.67;;;0.10;99.90;;;;;;4684255;29;20592;-81
2023/01/27 05:29:52;;;;;;;75.53;37.87;;;0.00;99.90;;;;;;4643603;30;20225;-82
2023/01/27 06:10:14;;;;;;;71.13;36.90;;;-0.40;99.90;;;;;;4587161;30;20212;-81
2023/01/27 07:21:04;;;;;;;62.37;32.97;;;0.20;99.90;;;;;;4474523;30;20582;-83
2023/01/27 07:46:43;;;;;;;54.23;31.10;;;0.90;98.10;;;;;;4496908;31;20254;-83
2023/01/27 08:06:43;;;;;;;42.63;23.97;;;1.30;93.80;;;;;;5756497;23;20183;-83
2023/01/27 08:32:23;;;;;;;36.17;21.33;;;1.70;88.10;;;;;;4764879;29;20387;-83
2023/01/27 08:36:44;;;;;;;35.17;18.73;;;1.80;88.30;;;;;;4687790;29;20232;-83
2023/01/27 08:57:36;;;;;;;32.93;19.87;;;2.20;87.90;;;;;;4670360;30;20308;-83
2023/01/27 09:38:01;;;;;;;30.03;17.10;;;2.50;85.00;;;;;;4486480;31;20403;-83
2023/01/27 10:23:36;;;;;;;29.30;18.70;;;4.00;81.80;;;;;;5888391;23;21725;31
2023/01/27 10:54:11;;;;;;;26.80;17.10;;;3.70;81.10;;;;;;4798873;29;20216;-82
2023/01/27 11:23:59;;;;;;;26.97;17.47;;;3.10;82.30;;;;;;4587736;30;20437;-83
2023/01/27 11:44:45;;;;;;;35.97;21.50;;;3.00;83.40;;;;;;4764233;29;20270;-83
2023/01/27 12:24:50;;;;;;;36.60;20.73;;;2.90;85.70;;;;;;4649553;30;20306;-84
2023/01/27 13:21:10;;;;;;;53.50;29.73;;;2.80;90.10;;;;;;4630258;30;20272;-84
2023/01/27 13:46:09;;;;;;;49.40;27.20;;;2.50;93.50;;;;;;4603764;30;20252;-82
2023/01/27 14:21:24;;;;;;;54.40;29.30;;;2.10;97.10;;;;;;4694159;29;21242;-82
2023/01/27 14:56:56;;;;;;;50.90;27.80;;;1.80;97.80;;;;;;4487392;31;20934;-81
2023/01/27 15:27:25;;;;;;;58.47;26.27;;;1.60;98.70;;;;;;4566757;30;20699;-83
2023/01/27 15:48:07;;;;;;;63.03;31.00;;;1.50;99.50;;;;;;4593782;30;20282;-80
2023/01/27 16:08:18;;;;;;;70.90;36.30;;;1.50;99.90;;;;;;4591583;30;20326;-82
2023/01/27 16:43:17;;;;;;;44.60;23.27;;;1.50;99.90;;;;;;4554806;30;20238;-83
2023/01/27 17:13:47;;;;;;;73.27;35.57;;;1.50;99.70;;;;;;4637465;30;20229;-82
2023/01/27 17:44:35;;;;;;;88.07;41.00;;;1.40;99.90;;;;;;4684430;29;20234;-84
2023/01/27 18:09:58;;;;;;;83.80;39.07;;;1.20;99.90;;;;;;4659888;30;20210;-81
2023/01/27 18:39:52;;;;;;;63.53;27.57;;;1.10;99.90;;;;;;4638451;29;20708;-83
2023/01/27 19:10:33;;;;;;;81.77;38.60;;;1.10;99.90;;;;;;5750376;23;21605;-82
2023/01/27 19:41:07;;;;;;;64.27;28.83;;;1.10;99.90;;;;;;4702589;30;20206;-81
2023/01/27 20:06:19;;;;;;;72.83;34.97;;;1.10;99.90;;;;;;4638640;30;20332;-80
2023/01/27 20:31:39;;;;;;;82.30;36.43;;;1.30;99.90;;;;;;4655481;30;20922;-83
2023/01/27 21:07:16;;;;;;;60.50;29.27;;;1.20;99.90;;;;;;4781519;29;20627;-83
2023/01/27 21:37:40;;;;;;;54.10;28.37;;;1.00;99.90;;;;;;4667168;30;20228;-83
2023/01/27 22:07:25;;;;;;;50.97;27.13;;;1.00;99.90;;;;;;4622673;30;20233;-81
2023/01/27 22:23:19;;;;;;;50.37;25.73;;;0.90;99.90;;;;;;4595626;30;20542;-81
2023/01/27 22:27:41;;;;;;;55.90;26.43;;;1.00;99.90;;;;;;4586020;30;20283;-80
2023/01/27 22:48:20;;;;;;;52.00;26.80;;;0.80;99.90;;;;;;4677391;30;20247;-78
2023/01/27 23:44:17;;;;;;;55.23;27.40;;;0.80;99.90;;;;;;4649880;30;20266;-82
